Au Gres, Michigan
Current Conditions -  °F | °C
As of 4:14 PM on Friday 28 Nov 2014 (Local Time) from KOSC Reporting Station
Overcast Overcast  
Wind Chill: 16°   Ceiling: 5000
Heat Index: 24°   Visibility: 10mi
Dew Point: 15°   Wind: 7mph
Humidity: 69%   Direction: 190°S
Pressure: 30.15"   Gusts: NA
Location:  44.05°N, 83.7°W
Report Text: KOSC 282114Z AUTO 19006KT 10SM SCT023 BKN050 OVC065 M04/M09 A3015 RMK AO2 T10461096
Loading
Personal Weather Stations






























Interactive Weather Map New forecast layout! Learn more

10-Day Weather Forecast

Advertisements
Track Severe Weather on mobile